sensor_id;sensor_type;location;lat;lon;timestamp;temperature;humidity
5806;DHT22;2929;50.810;8.342;2022-11-15T00:01:29;8.70;99.90
5806;DHT22;2929;50.810;8.342;2022-11-15T00:04:14;8.70;99.90
5806;DHT22;2929;50.810;8.342;2022-11-15T00:07:01;8.70;99.90
5806;DHT22;2929;50.810;8.342;2022-11-15T00:09:47;8.80;99.90
5806;DHT22;2929;50.810;8.342;2022-11-15T00:12:32;8.80;99.90
5806;DHT22;2929;50.810;8.342;2022-11-15T00:15:18;8.80;99.90
5806;DHT22;2929;50.810;8.342;2022-11-15T00:18:04;8.80;99.90
5806;DHT22;2929;50.810;8.342;2022-11-15T00:20:50;8.80;99.90
5806;DHT22;2929;50.810;8.342;2022-11-15T00:23:37;8.80;99.90
5806;DHT22;2929;50.810;8.342;2022-11-15T00:26:23;8.80;99.90
5806;DHT22;2929;50.810;8.342;2022-11-15T00:29:08;8.80;99.90
5806;DHT22;2929;50.810;8.342;2022-11-15T00:31:54;8.80;99.90
5806;DHT22;2929;50.810;8.342;2022-11-15T00:34:39;8.80;99.90
5806;DHT22;2929;50.810;8.342;2022-11-15T00:37:25;8.70;99.90
5806;DHT22;2929;50.810;8.342;2022-11-15T00:40:12;8.80;99.90
5806;DHT22;2929;50.810;8.342;2022-11-15T00:42:59;8.80;99.90
5806;DHT22;2929;50.810;8.342;2022-11-15T00:45:44;8.70;99.90
5806;DHT22;2929;50.810;8.342;2022-11-15T00:48:30;8.70;99.90
5806;DHT22;2929;50.810;8.342;2022-11-15T00:51:15;8.70;99.90
5806;DHT22;2929;50.810;8.342;2022-11-15T00:54:01;8.70;99.90
5806;DHT22;2929;50.810;8.342;2022-11-15T00:56:48;8.80;99.90
5806;DHT22;2929;50.810;8.342;2022-11-15T00:59:35;8.90;99.90
5806;DHT22;2929;50.810;8.342;2022-11-15T01:02:20;8.90;99.90
5806;DHT22;2929;50.810;8.342;2022-11-15T01:05:06;8.90;99.90
5806;DHT22;2929;50.810;8.342;2022-11-15T01:07:52;8.90;99.90
5806;DHT22;2929;50.810;8.342;2022-11-15T01:10:38;8.90;99.90
5806;DHT22;2929;50.810;8.342;2022-11-15T01:13:25;9.00;99.90
5806;DHT22;2929;50.810;8.342;2022-11-15T01:16:13;8.90;99.90
5806;DHT22;2929;50.810;8.342;2022-11-15T01:18:59;8.90;99.90
5806;DHT22;2929;50.810;8.342;2022-11-15T01:21:44;8.90;99.90
5806;DHT22;2929;50.810;8.342;2022-11-15T01:24:30;8.90;99.90
5806;DHT22;2929;50.810;8.342;2022-11-15T01:27:15;8.90;99.90
5806;DHT22;2929;50.810;8.342;2022-11-15T01:30:04;8.90;99.90
5806;DHT22;2929;50.810;8.342;2022-11-15T01:32:49;8.90;99.90
5806;DHT22;2929;50.810;8.342;2022-11-15T01:35:38;8.90;99.90
5806;DHT22;2929;50.810;8.342;2022-11-15T01:38:24;8.90;99.90
5806;DHT22;2929;50.810;8.342;2022-11-15T01:41:16;8.90;99.90
5806;DHT22;2929;50.810;8.342;2022-11-15T01:44:38;8.90;99.90
5806;DHT22;2929;50.810;8.342;2022-11-15T01:47:28;8.90;99.90
5806;DHT22;2929;50.810;8.342;2022-11-15T01:50:19;8.90;99.90
5806;DHT22;2929;50.810;8.342;2022-11-15T01:53:05;8.80;99.90
5806;DHT22;2929;50.810;8.342;2022-11-15T01:55:52;8.80;99.90
5806;DHT22;2929;50.810;8.342;2022-11-15T01:58:38;8.80;99.90
5806;DHT22;2929;50.810;8.342;2022-11-15T02:01:25;8.80;99.90
5806;DHT22;2929;50.810;8.342;2022-11-15T02:04:15;8.80;99.90
5806;DHT22;2929;50.810;8.342;2022-11-15T02:07:02;8.90;99.90
5806;DHT22;2929;50.810;8.342;2022-11-15T02:09:49;8.90;99.90
5806;DHT22;2929;50.810;8.342;2022-11-15T02:12:35;8.80;99.90
5806;DHT22;2929;50.810;8.342;2022-11-15T02:15:21;8.90;99.90
5806;DHT22;2929;50.810;8.342;2022-11-15T02:18:13;8.90;99.90
5806;DHT22;2929;50.810;8.342;2022-11-15T02:21:16;8.90;99.90
5806;DHT22;2929;50.810;8.342;2022-11-15T02:31:11;8.90;99.90
5806;DHT22;2929;50.810;8.342;2022-11-15T02:34:05;8.90;99.90
5806;DHT22;2929;50.810;8.342;2022-11-15T02:36:59;9.00;99.90
5806;DHT22;2929;50.810;8.342;2022-11-15T02:39:50;9.10;99.90
5806;DHT22;2929;50.810;8.342;2022-11-15T02:42:40;9.10;99.90
5806;DHT22;2929;50.810;8.342;2022-11-15T02:45:50;9.20;99.90
5806;DHT22;2929;50.810;8.342;2022-11-15T02:48:38;9.20;99.90
5806;DHT22;2929;50.810;8.342;2022-11-15T02:51:24;9.30;99.90
5806;DHT22;2929;50.810;8.342;2022-11-15T02:54:12;9.30;99.90
5806;DHT22;2929;50.810;8.342;2022-11-15T02:57:01;9.40;99.90
5806;DHT22;2929;50.810;8.342;2022-11-15T03:00:08;9.40;99.90
5806;DHT22;2929;50.810;8.342;2022-11-15T03:03:10;9.50;99.90
5806;DHT22;2929;50.810;8.342;2022-11-15T03:06:08;9.50;99.90
5806;DHT22;2929;50.810;8.342;2022-11-15T03:09:02;9.50;99.90
5806;DHT22;2929;50.810;8.342;2022-11-15T03:11:53;9.50;99.90
5806;DHT22;2929;50.810;8.342;2022-11-15T03:14:45;9.50;99.90
5806;DHT22;2929;50.810;8.342;2022-11-15T03:17:38;9.50;99.90
5806;DHT22;2929;50.810;8.342;2022-11-15T03:20:27;9.50;99.90
5806;DHT22;2929;50.810;8.342;2022-11-15T03:23:14;9.60;99.90
5806;DHT22;2929;50.810;8.342;2022-11-15T03:26:00;9.60;99.90
5806;DHT22;2929;50.810;8.342;2022-11-15T03:28:50;9.50;99.90
5806;DHT22;2929;50.810;8.342;2022-11-15T03:31:39;9.50;99.90
5806;DHT22;2929;50.810;8.342;2022-11-15T03:34:34;9.50;99.90
5806;DHT22;2929;50.810;8.342;2022-11-15T03:37:26;9.50;99.90
5806;DHT22;2929;50.810;8.342;2022-11-15T03:40:16;9.50;99.90
5806;DHT22;2929;50.810;8.342;2022-11-15T03:43:06;9.50;99.90
5806;DHT22;2929;50.810;8.342;2022-11-15T03:45:57;9.50;99.90
5806;DHT22;2929;50.810;8.342;2022-11-15T03:48:47;9.50;99.90
5806;DHT22;2929;50.810;8.342;2022-11-15T03:51:34;9.80;99.90
5806;DHT22;2929;50.810;8.342;2022-11-15T03:54:19;9.80;99.90
5806;DHT22;2929;50.810;8.342;2022-11-15T03:57:06;9.80;99.90
5806;DHT22;2929;50.810;8.342;2022-11-15T03:59:51;10.00;99.90
5806;DHT22;2929;50.810;8.342;2022-11-15T04:02:37;9.90;99.90
5806;DHT22;2929;50.810;8.342;2022-11-15T04:05:23;9.90;99.90
5806;DHT22;2929;50.810;8.342;2022-11-15T04:08:08;9.90;99.90
5806;DHT22;2929;50.810;8.342;2022-11-15T04:10:54;9.90;99.90
5806;DHT22;2929;50.810;8.342;2022-11-15T04:13:41;10.00;99.90
5806;DHT22;2929;50.810;8.342;2022-11-15T04:16:26;10.00;99.90
5806;DHT22;2929;50.810;8.342;2022-11-15T04:19:12;10.10;99.90
5806;DHT22;2929;50.810;8.342;2022-11-15T04:22:15;10.00;99.90
5806;DHT22;2929;50.810;8.342;2022-11-15T04:25:19;10.10;99.90
5806;DHT22;2929;50.810;8.342;2022-11-15T04:28:04;10.20;99.90
5806;DHT22;2929;50.810;8.342;2022-11-15T04:30:51;10.20;99.90
5806;DHT22;2929;50.810;8.342;2022-11-15T04:33:37;10.10;99.90
5806;DHT22;2929;50.810;8.342;2022-11-15T04:36:23;10.10;99.90
5806;DHT22;2929;50.810;8.342;2022-11-15T04:39:26;10.10;99.90
5806;DHT22;2929;50.810;8.342;2022-11-15T04:42:12;10.10;99.90
5806;DHT22;2929;50.810;8.342;2022-11-15T04:44:58;10.20;99.90
5806;DHT22;2929;50.810;8.342;2022-11-15T04:47:46;10.30;99.90
5806;DHT22;2929;50.810;8.342;2022-11-15T04:50:31;10.20;99.90
5806;DHT22;2929;50.810;8.342;2022-11-15T04:53:17;10.20;99.90
5806;DHT22;2929;50.810;8.342;2022-11-15T04:56:03;10.30;99.90
5806;DHT22;2929;50.810;8.342;2022-11-15T04:58:48;10.30;99.90
5806;DHT22;2929;50.810;8.342;2022-11-15T05:01:34;10.30;99.90
5806;DHT22;2929;50.810;8.342;2022-11-15T05:04:21;10.20;99.90
5806;DHT22;2929;50.810;8.342;2022-11-15T05:07:06;10.20;99.90
5806;DHT22;2929;50.810;8.342;2022-11-15T05:09:51;10.40;99.90
5806;DHT22;2929;50.810;8.342;2022-11-15T05:12:37;10.30;99.90
5806;DHT22;2929;50.810;8.342;2022-11-15T05:15:22;10.30;99.90
5806;DHT22;2929;50.810;8.342;2022-11-15T05:18:08;10.20;99.90
5806;DHT22;2929;50.810;8.342;2022-11-15T05:20:55;10.30;99.90
5806;DHT22;2929;50.810;8.342;2022-11-15T05:23:40;10.20;99.90
5806;DHT22;2929;50.810;8.342;2022-11-15T05:26:26;10.20;99.90
5806;DHT22;2929;50.810;8.342;2022-11-15T05:29:12;10.20;99.90
5806;DHT22;2929;50.810;8.342;2022-11-15T05:31:58;10.20;99.90
5806;DHT22;2929;50.810;8.342;2022-11-15T05:34:43;10.30;99.90
5806;DHT22;2929;50.810;8.342;2022-11-15T05:37:30;10.30;99.90
5806;DHT22;2929;50.810;8.342;2022-11-15T05:40:16;10.30;99.90
5806;DHT22;2929;50.810;8.342;2022-11-15T05:43:03;10.20;99.90
5806;DHT22;2929;50.810;8.342;2022-11-15T05:45:49;10.10;99.90
5806;DHT22;2929;50.810;8.342;2022-11-15T05:48:36;10.20;99.90
5806;DHT22;2929;50.810;8.342;2022-11-15T05:51:23;10.20;99.90
5806;DHT22;2929;50.810;8.342;2022-11-15T05:54:11;10.10;99.90
5806;DHT22;2929;50.810;8.342;2022-11-15T05:56:56;10.10;99.90
5806;DHT22;2929;50.810;8.342;2022-11-15T05:59:42;10.10;99.90
5806;DHT22;2929;50.810;8.342;2022-11-15T06:02:28;10.00;99.90
5806;DHT22;2929;50.810;8.342;2022-11-15T06:05:14;9.90;99.90
5806;DHT22;2929;50.810;8.342;2022-11-15T06:08:00;9.90;99.90
5806;DHT22;2929;50.810;8.342;2022-11-15T06:10:48;9.80;99.90
5806;DHT22;2929;50.810;8.342;2022-11-15T06:13:34;9.80;99.90
5806;DHT22;2929;50.810;8.342;2022-11-15T06:16:19;9.70;99.90
5806;DHT22;2929;50.810;8.342;2022-11-15T06:19:05;9.60;99.90
5806;DHT22;2929;50.810;8.342;2022-11-15T06:21:51;9.60;99.90
5806;DHT22;2929;50.810;8.342;2022-11-15T06:24:37;9.50;99.90
5806;DHT22;2929;50.810;8.342;2022-11-15T06:27:24;9.50;99.90
5806;DHT22;2929;50.810;8.342;2022-11-15T06:30:10;9.40;99.90
5806;DHT22;2929;50.810;8.342;2022-11-15T06:33:00;9.30;99.90
5806;DHT22;2929;50.810;8.342;2022-11-15T06:35:46;9.30;99.90
5806;DHT22;2929;50.810;8.342;2022-11-15T06:38:32;9.20;99.90
5806;DHT22;2929;50.810;8.342;2022-11-15T06:41:18;9.10;99.90
5806;DHT22;2929;50.810;8.342;2022-11-15T06:44:06;9.10;99.90
5806;DHT22;2929;50.810;8.342;2022-11-15T06:46:52;9.00;99.90
5806;DHT22;2929;50.810;8.342;2022-11-15T06:49:37;8.90;99.90
5806;DHT22;2929;50.810;8.342;2022-11-15T06:52:23;8.80;99.90
5806;DHT22;2929;50.810;8.342;2022-11-15T06:55:09;8.80;99.90
5806;DHT22;2929;50.810;8.342;2022-11-15T06:57:55;8.70;99.90
5806;DHT22;2929;50.810;8.342;2022-11-15T07:00:42;8.70;99.90
5806;DHT22;2929;50.810;8.342;2022-11-15T07:03:27;8.70;99.90
5806;DHT22;2929;50.810;8.342;2022-11-15T07:06:13;8.70;99.90
5806;DHT22;2929;50.810;8.342;2022-11-15T07:08:59;8.70;99.90
5806;DHT22;2929;50.810;8.342;2022-11-15T07:11:44;8.80;99.90
5806;DHT22;2929;50.810;8.342;2022-11-15T07:14:30;8.90;99.90
5806;DHT22;2929;50.810;8.342;2022-11-15T07:17:17;9.00;99.90
5806;DHT22;2929;50.810;8.342;2022-11-15T07:20:03;9.10;99.90
5806;DHT22;2929;50.810;8.342;2022-11-15T07:22:49;9.10;99.90
5806;DHT22;2929;50.810;8.342;2022-11-15T07:25:35;9.20;99.90
5806;DHT22;2929;50.810;8.342;2022-11-15T07:28:20;9.20;99.90
5806;DHT22;2929;50.810;8.342;2022-11-15T07:31:07;9.20;99.90
5806;DHT22;2929;50.810;8.342;2022-11-15T07:33:56;9.20;99.90
5806;DHT22;2929;50.810;8.342;2022-11-15T07:36:41;9.20;99.90
5806;DHT22;2929;50.810;8.342;2022-11-15T07:39:27;9.20;99.90
5806;DHT22;2929;50.810;8.342;2022-11-15T07:42:13;9.20;99.90
5806;DHT22;2929;50.810;8.342;2022-11-15T07:45:16;9.20;99.90
5806;DHT22;2929;50.810;8.342;2022-11-15T07:48:01;9.20;99.90
5806;DHT22;2929;50.810;8.342;2022-11-15T07:50:48;9.30;99.90
5806;DHT22;2929;50.810;8.342;2022-11-15T07:53:34;9.40;99.90
5806;DHT22;2929;50.810;8.342;2022-11-15T07:56:19;9.50;99.90
5806;DHT22;2929;50.810;8.342;2022-11-15T07:59:05;9.50;99.90
5806;DHT22;2929;50.810;8.342;2022-11-15T08:01:51;9.50;99.90
5806;DHT22;2929;50.810;8.342;2022-11-15T08:04:37;9.50;99.90
5806;DHT22;2929;50.810;8.342;2022-11-15T08:07:24;9.60;99.90
5806;DHT22;2929;50.810;8.342;2022-11-15T08:10:09;9.50;99.90
5806;DHT22;2929;50.810;8.342;2022-11-15T08:12:59;9.60;99.90
5806;DHT22;2929;50.810;8.342;2022-11-15T08:15:45;9.60;99.90
5806;DHT22;2929;50.810;8.342;2022-11-15T08:18:31;9.60;99.90
5806;DHT22;2929;50.810;8.342;2022-11-15T08:21:19;9.70;99.90
5806;DHT22;2929;50.810;8.342;2022-11-15T08:24:10;9.80;99.90
5806;DHT22;2929;50.810;8.342;2022-11-15T08:26:56;9.80;99.90
5806;DHT22;2929;50.810;8.342;2022-11-15T08:29:42;9.90;99.90
5806;DHT22;2929;50.810;8.342;2022-11-15T08:32:29;10.10;99.90
5806;DHT22;2929;50.810;8.342;2022-11-15T08:35:15;10.10;99.90
5806;DHT22;2929;50.810;8.342;2022-11-15T08:38:01;10.20;99.90
5806;DHT22;2929;50.810;8.342;2022-11-15T08:40:48;10.30;99.90
5806;DHT22;2929;50.810;8.342;2022-11-15T08:43:34;10.40;99.90
5806;DHT22;2929;50.810;8.342;2022-11-15T08:46:19;10.40;99.90
5806;DHT22;2929;50.810;8.342;2022-11-15T08:49:05;10.50;99.90
5806;DHT22;2929;50.810;8.342;2022-11-15T08:51:50;10.60;99.90
5806;DHT22;2929;50.810;8.342;2022-11-15T08:54:36;10.60;99.90
5806;DHT22;2929;50.810;8.342;2022-11-15T08:57:23;10.50;99.90
5806;DHT22;2929;50.810;8.342;2022-11-15T09:00:10;10.60;99.90
5806;DHT22;2929;50.810;8.342;2022-11-15T09:02:56;10.50;99.90
5806;DHT22;2929;50.810;8.342;2022-11-15T09:05:42;10.50;99.90
5806;DHT22;2929;50.810;8.342;2022-11-15T09:08:30;10.60;99.90
5806;DHT22;2929;50.810;8.342;2022-11-15T09:11:15;10.60;99.90
5806;DHT22;2929;50.810;8.342;2022-11-15T09:14:05;10.60;99.90
5806;DHT22;2929;50.810;8.342;2022-11-15T09:16:51;10.70;99.90
5806;DHT22;2929;50.810;8.342;2022-11-15T09:19:36;10.70;99.90
5806;DHT22;2929;50.810;8.342;2022-11-15T09:22:22;10.70;99.90
5806;DHT22;2929;50.810;8.342;2022-11-15T09:25:08;10.80;99.90
5806;DHT22;2929;50.810;8.342;2022-11-15T09:27:54;10.80;99.90
5806;DHT22;2929;50.810;8.342;2022-11-15T09:30:42;10.90;99.90
5806;DHT22;2929;50.810;8.342;2022-11-15T09:33:28;10.90;99.90
5806;DHT22;2929;50.810;8.342;2022-11-15T09:36:14;10.90;99.90
5806;DHT22;2929;50.810;8.342;2022-11-15T09:39:00;11.00;99.90
5806;DHT22;2929;50.810;8.342;2022-11-15T09:42:12;11.00;99.90
5806;DHT22;2929;50.810;8.342;2022-11-15T09:45:14;11.10;99.90
5806;DHT22;2929;50.810;8.342;2022-11-15T09:48:12;11.20;99.90
5806;DHT22;2929;50.810;8.342;2022-11-15T09:51:25;11.20;99.90
5806;DHT22;2929;50.810;8.342;2022-11-15T09:54:01;11.20;99.90
5806;DHT22;2929;50.810;8.342;2022-11-15T09:56:31;11.20;99.90
5806;DHT22;2929;50.810;8.342;2022-11-15T09:59:08;11.20;99.90
5806;DHT22;2929;50.810;8.342;2022-11-15T10:01:44;11.20;99.90
5806;DHT22;2929;50.810;8.342;2022-11-15T10:04:18;11.20;99.90
5806;DHT22;2929;50.810;8.342;2022-11-15T10:06:49;11.20;99.90
5806;DHT22;2929;50.810;8.342;2022-11-15T10:09:19;11.20;99.90
5806;DHT22;2929;50.810;8.342;2022-11-15T10:11:47;11.20;99.90
5806;DHT22;2929;50.810;8.342;2022-11-15T10:14:17;11.20;99.90
5806;DHT22;2929;50.810;8.342;2022-11-15T10:17:13;11.20;99.90
5806;DHT22;2929;50.810;8.342;2022-11-15T10:19:55;11.20;99.90
5806;DHT22;2929;50.810;8.342;2022-11-15T10:22:28;11.30;99.90
5806;DHT22;2929;50.810;8.342;2022-11-15T10:25:10;11.30;99.90
5806;DHT22;2929;50.810;8.342;2022-11-15T10:27:39;11.40;99.90
5806;DHT22;2929;50.810;8.342;2022-11-15T10:30:11;11.40;99.90
5806;DHT22;2929;50.810;8.342;2022-11-15T10:32:40;11.40;99.90
5806;DHT22;2929;50.810;8.342;2022-11-15T10:35:24;11.40;99.90
5806;DHT22;2929;50.810;8.342;2022-11-15T10:37:52;11.40;99.90
5806;DHT22;2929;50.810;8.342;2022-11-15T10:40:30;11.40;99.90
5806;DHT22;2929;50.810;8.342;2022-11-15T10:43:05;11.50;99.90
5806;DHT22;2929;50.810;8.342;2022-11-15T10:45:33;11.40;99.90
5806;DHT22;2929;50.810;8.342;2022-11-15T10:48:20;11.40;99.90
5806;DHT22;2929;50.810;8.342;2022-11-15T10:50:50;11.50;99.90
5806;DHT22;2929;50.810;8.342;2022-11-15T10:53:26;11.50;99.90
5806;DHT22;2929;50.810;8.342;2022-11-15T10:55:56;11.60;99.90
5806;DHT22;2929;50.810;8.342;2022-11-15T10:58:34;11.60;99.90
5806;DHT22;2929;50.810;8.342;2022-11-15T11:01:13;11.80;99.90
5806;DHT22;2929;50.810;8.342;2022-11-15T11:03:42;11.90;99.90
5806;DHT22;2929;50.810;8.342;2022-11-15T11:06:13;12.00;99.90
5806;DHT22;2929;50.810;8.342;2022-11-15T11:08:41;12.00;99.90
5806;DHT22;2929;50.810;8.342;2022-11-15T11:11:19;11.90;99.90
5806;DHT22;2929;50.810;8.342;2022-11-15T11:13:46;11.90;99.90
5806;DHT22;2929;50.810;8.342;2022-11-15T11:16:34;11.90;99.90
5806;DHT22;2929;50.810;8.342;2022-11-15T11:19:17;12.00;99.90
5806;DHT22;2929;50.810;8.342;2022-11-15T11:21:50;12.10;99.90
5806;DHT22;2929;50.810;8.342;2022-11-15T11:24:25;12.30;99.90
5806;DHT22;2929;50.810;8.342;2022-11-15T11:27:05;12.70;99.90
5806;DHT22;2929;50.810;8.342;2022-11-15T11:29:51;13.50;99.90
5806;DHT22;2929;50.810;8.342;2022-11-15T11:32:39;13.80;99.90
5806;DHT22;2929;50.810;8.342;2022-11-15T11:35:13;14.20;99.90
5806;DHT22;2929;50.810;8.342;2022-11-15T11:37:56;14.10;99.90
5806;DHT22;2929;50.810;8.342;2022-11-15T11:40:30;14.20;99.90
5806;DHT22;2929;50.810;8.342;2022-11-15T11:43:03;14.30;99.90
5806;DHT22;2929;50.810;8.342;2022-11-15T11:45:53;14.90;99.90
5806;DHT22;2929;50.810;8.342;2022-11-15T11:48:38;14.80;99.90
5806;DHT22;2929;50.810;8.342;2022-11-15T11:51:13;14.60;99.90
5806;DHT22;2929;50.810;8.342;2022-11-15T11:53:48;14.30;99.90
5806;DHT22;2929;50.810;8.342;2022-11-15T11:56:23;14.60;99.90
5806;DHT22;2929;50.810;8.342;2022-11-15T11:58:52;15.10;99.90
5806;DHT22;2929;50.810;8.342;2022-11-15T12:01:23;15.90;99.90
5806;DHT22;2929;50.810;8.342;2022-11-15T12:03:55;16.20;99.90
5806;DHT22;2929;50.810;8.342;2022-11-15T12:06:31;16.40;99.90
5806;DHT22;2929;50.810;8.342;2022-11-15T12:09:03;16.60;99.90
5806;DHT22;2929;50.810;8.342;2022-11-15T12:11:51;16.60;99.90
5806;DHT22;2929;50.810;8.342;2022-11-15T12:14:26;16.50;99.90
5806;DHT22;2929;50.810;8.342;2022-11-15T12:16:54;16.80;99.90
5806;DHT22;2929;50.810;8.342;2022-11-15T12:19:21;16.60;99.90
5806;DHT22;2929;50.810;8.342;2022-11-15T12:21:53;15.90;99.90
5806;DHT22;2929;50.810;8.342;2022-11-15T12:24:27;15.20;99.90
5806;DHT22;2929;50.810;8.342;2022-11-15T12:26:59;14.90;99.90
5806;DHT22;2929;50.810;8.342;2022-11-15T12:29:31;14.30;99.90
5806;DHT22;2929;50.810;8.342;2022-11-15T12:32:00;14.10;99.90
5806;DHT22;2929;50.810;8.342;2022-11-15T12:34:43;13.70;99.90
5806;DHT22;2929;50.810;8.342;2022-11-15T12:40:33;13.40;99.90
5806;DHT22;2929;50.810;8.342;2022-11-15T12:46:02;13.20;99.90
5806;DHT22;2929;50.810;8.342;2022-11-15T12:48:57;13.20;99.90
5806;DHT22;2929;50.810;8.342;2022-11-15T12:52:05;13.30;99.90
5806;DHT22;2929;50.810;8.342;2022-11-15T12:54:55;13.30;99.90
5806;DHT22;2929;50.810;8.342;2022-11-15T12:57:40;13.30;99.90
5806;DHT22;2929;50.810;8.342;2022-11-15T13:03:32;13.30;99.90
5806;DHT22;2929;50.810;8.342;2022-11-15T13:06:08;13.10;99.90
5806;DHT22;2929;50.810;8.342;2022-11-15T13:08:47;12.90;99.90
5806;DHT22;2929;50.810;8.342;2022-11-15T13:14:45;12.90;99.90
5806;DHT22;2929;50.810;8.342;2022-11-15T13:17:31;13.00;99.90
5806;DHT22;2929;50.810;8.342;2022-11-15T13:20:21;13.00;99.90
5806;DHT22;2929;50.810;8.342;2022-11-15T13:22:49;13.00;99.90
5806;DHT22;2929;50.810;8.342;2022-11-15T13:25:45;13.00;99.90
5806;DHT22;2929;50.810;8.342;2022-11-15T13:28:21;12.80;99.90
5806;DHT22;2929;50.810;8.342;2022-11-15T13:30:52;12.90;99.90
5806;DHT22;2929;50.810;8.342;2022-11-15T13:33:22;12.80;99.90
5806;DHT22;2929;50.810;8.342;2022-11-15T13:35:52;12.80;99.90
5806;DHT22;2929;50.810;8.342;2022-11-15T13:38:26;12.70;99.90
5806;DHT22;2929;50.810;8.342;2022-11-15T13:40:54;12.70;99.90
5806;DHT22;2929;50.810;8.342;2022-11-15T13:43:29;12.70;99.90
5806;DHT22;2929;50.810;8.342;2022-11-15T13:46:07;12.70;99.90
5806;DHT22;2929;50.810;8.342;2022-11-15T13:48:34;12.60;99.90
5806;DHT22;2929;50.810;8.342;2022-11-15T13:51:04;12.60;99.90
5806;DHT22;2929;50.810;8.342;2022-11-15T13:53:32;12.50;99.90
5806;DHT22;2929;50.810;8.342;2022-11-15T13:56:00;12.50;99.90
5806;DHT22;2929;50.810;8.342;2022-11-15T13:58:30;12.50;99.90
5806;DHT22;2929;50.810;8.342;2022-11-15T14:01:00;12.60;99.90
5806;DHT22;2929;50.810;8.342;2022-11-15T14:03:32;12.50;99.90
5806;DHT22;2929;50.810;8.342;2022-11-15T14:06:04;12.50;99.90
5806;DHT22;2929;50.810;8.342;2022-11-15T14:08:34;12.50;99.90
5806;DHT22;2929;50.810;8.342;2022-11-15T14:11:09;12.50;99.90
5806;DHT22;2929;50.810;8.342;2022-11-15T14:13:39;12.50;99.90
5806;DHT22;2929;50.810;8.342;2022-11-15T14:16:14;12.50;99.90
5806;DHT22;2929;50.810;8.342;2022-11-15T14:18:45;12.40;99.90
5806;DHT22;2929;50.810;8.342;2022-11-15T14:21:12;12.40;99.90
5806;DHT22;2929;50.810;8.342;2022-11-15T14:23:40;12.40;99.90
5806;DHT22;2929;50.810;8.342;2022-11-15T14:26:25;12.30;99.90
5806;DHT22;2929;50.810;8.342;2022-11-15T14:28:52;12.30;99.90
5806;DHT22;2929;50.810;8.342;2022-11-15T14:31:20;12.30;99.90
5806;DHT22;2929;50.810;8.342;2022-11-15T14:33:49;12.20;99.90
5806;DHT22;2929;50.810;8.342;2022-11-15T14:36:17;12.20;99.90
5806;DHT22;2929;50.810;8.342;2022-11-15T14:38:45;12.20;99.90
5806;DHT22;2929;50.810;8.342;2022-11-15T14:41:18;12.20;99.90
5806;DHT22;2929;50.810;8.342;2022-11-15T14:43:46;12.20;99.90
5806;DHT22;2929;50.810;8.342;2022-11-15T14:46:13;12.10;99.90
5806;DHT22;2929;50.810;8.342;2022-11-15T14:48:40;12.00;99.90
5806;DHT22;2929;50.810;8.342;2022-11-15T14:51:16;12.10;99.90
5806;DHT22;2929;50.810;8.342;2022-11-15T14:53:45;12.10;99.90
5806;DHT22;2929;50.810;8.342;2022-11-15T14:56:12;12.00;99.90
5806;DHT22;2929;50.810;8.342;2022-11-15T14:58:39;11.90;99.90
5806;DHT22;2929;50.810;8.342;2022-11-15T15:01:13;11.80;99.90
5806;DHT22;2929;50.810;8.342;2022-11-15T15:03:40;11.80;99.90
5806;DHT22;2929;50.810;8.342;2022-11-15T15:06:09;11.70;99.90
5806;DHT22;2929;50.810;8.342;2022-11-15T15:08:39;11.70;99.90
5806;DHT22;2929;50.810;8.342;2022-11-15T15:11:10;11.70;99.90
5806;DHT22;2929;50.810;8.342;2022-11-15T15:13:40;11.70;99.90
5806;DHT22;2929;50.810;8.342;2022-11-15T15:16:07;11.70;99.90
5806;DHT22;2929;50.810;8.342;2022-11-15T15:18:34;11.70;99.90
5806;DHT22;2929;50.810;8.342;2022-11-15T15:21:02;11.60;99.90
5806;DHT22;2929;50.810;8.342;2022-11-15T15:23:32;11.50;99.90
5806;DHT22;2929;50.810;8.342;2022-11-15T15:26:02;11.60;99.90
5806;DHT22;2929;50.810;8.342;2022-11-15T15:28:29;11.50;99.90
5806;DHT22;2929;50.810;8.342;2022-11-15T15:30:56;11.40;99.90
5806;DHT22;2929;50.810;8.342;2022-11-15T15:33:23;11.40;99.90
5806;DHT22;2929;50.810;8.342;2022-11-15T15:35:52;11.30;99.90
5806;DHT22;2929;50.810;8.342;2022-11-15T15:38:19;11.20;99.90
5806;DHT22;2929;50.810;8.342;2022-11-15T15:40:47;11.20;99.90
5806;DHT22;2929;50.810;8.342;2022-11-15T15:43:15;11.20;99.90
5806;DHT22;2929;50.810;8.342;2022-11-15T15:45:42;11.20;99.90
5806;DHT22;2929;50.810;8.342;2022-11-15T15:48:13;11.20;99.90
5806;DHT22;2929;50.810;8.342;2022-11-15T15:50:40;11.10;99.90
5806;DHT22;2929;50.810;8.342;2022-11-15T15:53:09;11.10;99.90
5806;DHT22;2929;50.810;8.342;2022-11-15T15:55:38;11.00;99.90
5806;DHT22;2929;50.810;8.342;2022-11-15T15:58:05;11.00;99.90
5806;DHT22;2929;50.810;8.342;2022-11-15T16:00:35;11.10;99.90
5806;DHT22;2929;50.810;8.342;2022-11-15T16:03:02;11.00;99.90
5806;DHT22;2929;50.810;8.342;2022-11-15T16:05:29;11.00;99.90
5806;DHT22;2929;50.810;8.342;2022-11-15T16:07:57;11.00;99.90
5806;DHT22;2929;50.810;8.342;2022-11-15T16:10:26;11.00;99.90
5806;DHT22;2929;50.810;8.342;2022-11-15T16:12:54;10.90;99.90
5806;DHT22;2929;50.810;8.342;2022-11-15T16:15:23;10.90;99.90
5806;DHT22;2929;50.810;8.342;2022-11-15T16:17:53;10.90;99.90
5806;DHT22;2929;50.810;8.342;2022-11-15T16:20:33;10.90;99.90
5806;DHT22;2929;50.810;8.342;2022-11-15T16:23:01;11.00;99.90
5806;DHT22;2929;50.810;8.342;2022-11-15T16:25:28;11.00;99.90
5806;DHT22;2929;50.810;8.342;2022-11-15T16:27:55;11.00;99.90
5806;DHT22;2929;50.810;8.342;2022-11-15T16:30:22;11.10;99.90
5806;DHT22;2929;50.810;8.342;2022-11-15T16:32:51;11.00;99.90
5806;DHT22;2929;50.810;8.342;2022-11-15T16:35:20;11.00;99.90
5806;DHT22;2929;50.810;8.342;2022-11-15T16:37:47;10.90;99.90
5806;DHT22;2929;50.810;8.342;2022-11-15T16:40:26;10.90;99.90
5806;DHT22;2929;50.810;8.342;2022-11-15T16:42:54;11.00;99.90
5806;DHT22;2929;50.810;8.342;2022-11-15T16:45:22;10.90;99.90
5806;DHT22;2929;50.810;8.342;2022-11-15T16:47:49;11.00;99.90
5806;DHT22;2929;50.810;8.342;2022-11-15T16:50:21;11.00;99.90
5806;DHT22;2929;50.810;8.342;2022-11-15T16:52:53;11.00;99.90
5806;DHT22;2929;50.810;8.342;2022-11-15T16:55:22;11.00;99.90
5806;DHT22;2929;50.810;8.342;2022-11-15T16:57:49;11.00;99.90
5806;DHT22;2929;50.810;8.342;2022-11-15T17:00:18;11.00;99.90
5806;DHT22;2929;50.810;8.342;2022-11-15T17:02:47;10.90;99.90
5806;DHT22;2929;50.810;8.342;2022-11-15T17:05:15;10.90;99.90
5806;DHT22;2929;50.810;8.342;2022-11-15T17:07:46;10.90;99.90
5806;DHT22;2929;50.810;8.342;2022-11-15T17:10:15;10.80;99.90
5806;DHT22;2929;50.810;8.342;2022-11-15T17:12:42;10.80;99.90
5806;DHT22;2929;50.810;8.342;2022-11-15T17:15:11;10.80;99.90
5806;DHT22;2929;50.810;8.342;2022-11-15T17:17:39;10.80;99.90
5806;DHT22;2929;50.810;8.342;2022-11-15T17:20:08;10.90;99.90
5806;DHT22;2929;50.810;8.342;2022-11-15T17:22:37;10.80;99.90
5806;DHT22;2929;50.810;8.342;2022-11-15T17:25:06;10.90;99.90
5806;DHT22;2929;50.810;8.342;2022-11-15T17:27:34;10.80;99.90
5806;DHT22;2929;50.810;8.342;2022-11-15T17:30:01;10.80;99.90
5806;DHT22;2929;50.810;8.342;2022-11-15T17:32:28;10.90;99.90
5806;DHT22;2929;50.810;8.342;2022-11-15T17:34:55;10.90;99.90
5806;DHT22;2929;50.810;8.342;2022-11-15T17:37:22;10.90;99.90
5806;DHT22;2929;50.810;8.342;2022-11-15T17:39:49;10.90;99.90
5806;DHT22;2929;50.810;8.342;2022-11-15T17:42:17;10.90;99.90
5806;DHT22;2929;50.810;8.342;2022-11-15T17:44:44;10.90;99.90
5806;DHT22;2929;50.810;8.342;2022-11-15T17:47:11;10.90;99.90
5806;DHT22;2929;50.810;8.342;2022-11-15T17:49:38;10.90;99.90
5806;DHT22;2929;50.810;8.342;2022-11-15T17:52:06;10.90;99.90
5806;DHT22;2929;50.810;8.342;2022-11-15T17:54:33;10.80;99.90